createdAt,value
2023-01-08T00:02:00.992Z,5.52
2023-01-08T00:07:02.794Z,5.38
2023-01-08T00:12:05.769Z,5.43
2023-01-08T00:17:08.487Z,5.41
2023-01-08T00:22:10.222Z,5.19
2023-01-08T00:27:12.040Z,5.01
2023-01-08T00:32:13.835Z,4.76
2023-01-08T00:37:20.074Z,4.49
2023-01-08T00:42:21.870Z,4.21
2023-01-08T00:47:23.657Z,3.93
2023-01-08T00:52:25.815Z,3.87
2023-01-08T00:57:33.194Z,3.88
2023-01-08T01:02:36.680Z,3.72
2023-01-08T01:07:38.389Z,3.53
2023-01-08T01:12:40.434Z,3.25
2023-01-08T01:17:43.448Z,3.06
2023-01-08T01:22:45.329Z,3.04
2023-01-08T01:27:47.164Z,2.99
2023-01-08T01:32:49.029Z,2.97
2023-01-08T01:37:50.789Z,3.03
2023-01-08T01:42:52.349Z,3.10
2023-01-08T01:47:56.060Z,3.09
2023-01-08T01:53:06.823Z,3.08
2023-01-08T01:58:20.695Z,3.11
2023-01-08T02:03:26.632Z,3.10
2023-01-08T02:08:42.235Z,3.05
2023-01-08T02:13:54.840Z,2.98
2023-01-08T02:19:14.106Z,2.90
2023-01-08T02:24:50.197Z,2.84
2023-01-08T02:29:54.993Z,2.73
2023-01-08T02:34:56.656Z,2.66
2023-01-08T02:40:14.733Z,2.65
2023-01-08T02:45:37.226Z,2.61
2023-01-08T02:50:51.445Z,2.43
2023-01-08T02:55:58.792Z,2.34
2023-01-08T03:01:07.053Z,2.30
2023-01-08T03:06:13.102Z,2.28
2023-01-08T03:11:17.888Z,2.29
2023-01-08T03:16:52.689Z,2.30
2023-01-08T03:21:55.730Z,2.33
2023-01-08T03:27:00.935Z,2.31
2023-01-08T03:32:06.750Z,2.29
2023-01-08T03:37:10.983Z,2.24
2023-01-08T03:42:16.743Z,2.16
2023-01-08T03:47:21.786Z,2.21
2023-01-08T03:52:28.928Z,2.21
2023-01-08T03:57:30.690Z,2.09
2023-01-08T04:02:32.599Z,2.02
2023-01-08T04:07:34.582Z,2.00
2023-01-08T04:12:36.402Z,2.05
2023-01-08T04:17:38.469Z,2.03
2023-01-08T04:22:40.155Z,2.05
2023-01-08T04:27:41.922Z,2.14
2023-01-08T04:32:43.657Z,2.20
2023-01-08T04:37:45.396Z,2.19
2023-01-08T04:42:47.168Z,2.09
2023-01-08T04:47:48.854Z,1.94
2023-01-08T04:52:50.697Z,1.96
2023-01-08T04:57:52.421Z,2.15
2023-01-08T05:02:55.413Z,2.26
2023-01-08T05:07:57.332Z,2.30
2023-01-08T05:13:02.125Z,2.38
2023-01-08T05:18:05.973Z,2.43
2023-01-08T05:23:07.692Z,2.38
2023-01-08T05:28:09.547Z,2.33
2023-01-08T05:33:11.203Z,2.30
2023-01-08T05:38:13.213Z,2.29
2023-01-08T05:43:15.045Z,2.33
2023-01-08T05:48:16.828Z,2.32
2023-01-08T05:53:19.041Z,2.43
2023-01-08T05:58:21.136Z,2.63
2023-01-08T06:03:23.323Z,2.71
2023-01-08T06:08:25.118Z,2.66
2023-01-08T06:13:27.754Z,2.53
2023-01-08T06:18:29.982Z,2.44
2023-01-08T06:23:32.741Z,2.26
2023-01-08T06:28:35.562Z,2.07
2023-01-08T06:33:37.254Z,1.99
2023-01-08T06:38:39.069Z,1.98
2023-01-08T06:43:40.838Z,1.91
2023-01-08T06:48:42.668Z,1.79
2023-01-08T06:53:44.365Z,1.80
2023-01-08T06:58:46.176Z,1.88
2023-01-08T07:03:47.746Z,1.96
2023-01-08T07:08:49.628Z,2.11
2023-01-08T07:13:51.497Z,2.20
2023-01-08T07:18:53.227Z,2.39
2023-01-08T07:23:55.147Z,2.68
2023-01-08T07:28:56.784Z,2.99
2023-01-08T07:33:58.465Z,3.16
2023-01-08T07:39:00.036Z,3.37
2023-01-08T07:44:02.060Z,3.61
2023-01-08T07:49:06.157Z,3.81
2023-01-08T07:54:07.841Z,4.01
2023-01-08T07:59:09.518Z,4.12
2023-01-08T08:04:11.599Z,4.17
2023-01-08T08:09:13.458Z,4.22
2023-01-08T08:14:15.199Z,4.22
2023-01-08T08:19:16.907Z,4.20
2023-01-08T08:24:18.626Z,4.18
2023-01-08T08:29:20.692Z,4.27
2023-01-08T08:34:22.725Z,4.40
2023-01-08T08:39:24.513Z,4.51
2023-01-08T08:44:26.245Z,4.59
2023-01-08T08:49:27.913Z,4.73
2023-01-08T08:54:29.588Z,4.93
2023-01-08T08:59:31.306Z,5.17
2023-01-08T09:04:34.298Z,5.44
2023-01-08T09:09:35.999Z,5.75
2023-01-08T09:14:37.890Z,6.06
2023-01-08T09:19:39.741Z,6.39
2023-01-08T09:24:41.580Z,6.81
2023-01-08T09:30:10.283Z,7.25
2023-01-08T09:35:12.057Z,7.77
2023-01-08T09:40:16.432Z,8.08
2023-01-08T09:45:28.781Z,8.26
2023-01-08T09:50:32.946Z,8.36
2023-01-08T09:55:34.633Z,8.46
2023-01-08T10:00:36.287Z,8.50
2023-01-08T10:05:37.930Z,8.52
2023-01-08T10:10:41.578Z,8.59
2023-01-08T10:15:43.354Z,8.69
2023-01-08T10:20:45.196Z,8.77
2023-01-08T10:25:58.530Z,8.96
2023-01-08T10:31:06.659Z,9.28
2023-01-08T10:36:11.787Z,9.48
2023-01-08T10:41:15.021Z,9.59
2023-01-08T10:46:42.223Z,9.60
2023-01-08T10:51:55.676Z,9.56
2023-01-08T10:56:58.440Z,9.60
2023-01-08T11:02:00.915Z,9.58
2023-01-08T11:07:06.878Z,9.55
2023-01-08T11:12:47.569Z,9.65
2023-01-08T11:17:49.303Z,9.86
2023-01-08T11:22:50.990Z,10.19
2023-01-08T11:27:53.906Z,10.47
2023-01-08T11:33:16.837Z,10.71
2023-01-08T11:38:18.581Z,10.96
2023-01-08T11:43:41.914Z,11.24
2023-01-08T11:49:14.892Z,11.54
2023-01-08T11:54:53.897Z,11.82
2023-01-08T12:00:09.004Z,12.03
2023-01-08T12:05:26.191Z,12.09
2023-01-08T12:10:54.516Z,12.20
2023-01-08T12:16:17.600Z,12.01
2023-01-08T12:21:25.720Z,11.96
2023-01-08T12:26:34.413Z,12.19
2023-01-08T12:32:04.959Z,12.32
2023-01-08T12:37:33.351Z,12.31
2023-01-08T12:42:42.679Z,12.25
2023-01-08T12:47:53.652Z,12.15
2023-01-08T12:53:07.931Z,12.18
2023-01-08T12:58:45.676Z,12.14
2023-01-08T13:03:49.121Z,12.06
2023-01-08T13:08:53.834Z,11.99
2023-01-08T13:14:08.879Z,11.93
2023-01-08T13:19:28.956Z,11.85
2023-01-08T13:24:37.227Z,11.94
2023-01-08T13:29:44.493Z,12.01
2023-01-08T13:34:46.347Z,11.88
2023-01-08T13:39:48.123Z,11.59
2023-01-08T13:44:59.019Z,11.20
2023-01-08T13:50:06.066Z,10.81
2023-01-08T13:55:21.191Z,10.48
2023-01-08T14:00:44.250Z,10.26
2023-01-08T14:05:45.915Z,10.24
2023-01-08T14:10:47.719Z,10.28
2023-01-08T14:15:49.682Z,10.27
2023-01-08T14:20:51.779Z,10.21
2023-01-08T14:25:54.352Z,9.96
2023-01-08T14:30:57.425Z,9.68
2023-01-08T14:36:01.264Z,9.45
2023-01-08T14:41:13.008Z,9.28
2023-01-08T14:46:29.709Z,9.03
2023-01-08T14:51:32.238Z,8.72
2023-01-08T14:56:36.163Z,8.45
2023-01-08T15:01:38.786Z,8.19
2023-01-08T15:06:41.828Z,7.97
2023-01-08T15:12:13.083Z,7.81
2023-01-08T15:17:20.233Z,7.63
2023-01-08T15:22:27.969Z,7.42
2023-01-08T15:27:31.763Z,7.25
2023-01-08T15:32:37.412Z,7.10
2023-01-08T15:37:41.151Z,7.05
2023-01-08T15:43:02.740Z,7.04
2023-01-08T15:48:05.892Z,6.98
2023-01-08T15:53:18.419Z,6.89
2023-01-08T15:58:20.079Z,6.80
2023-01-08T16:03:24.183Z,6.74
2023-01-08T16:08:26.016Z,6.71
2023-01-08T16:13:27.790Z,6.71
2023-01-08T16:18:29.623Z,6.70
2023-01-08T16:23:34.821Z,6.66
2023-01-08T16:28:37.312Z,6.62
2023-01-08T16:33:39.374Z,6.62
2023-01-08T16:38:41.133Z,6.65
2023-01-08T16:43:45.278Z,6.68
2023-01-08T16:48:48.468Z,6.69
2023-01-08T16:53:50.349Z,6.66
2023-01-08T16:58:52.221Z,6.66
2023-01-08T17:03:54.433Z,6.73
2023-01-08T17:08:59.180Z,6.81
2023-01-08T17:14:04.920Z,6.89
2023-01-08T17:19:07.100Z,7.03
2023-01-08T17:24:09.156Z,7.15
2023-01-08T17:29:10.841Z,7.15
2023-01-08T17:34:14.100Z,7.15
2023-01-08T17:39:15.735Z,7.14
2023-01-08T17:44:17.650Z,7.17
2023-01-08T17:49:19.437Z,7.22
2023-01-08T17:54:22.562Z,7.23
2023-01-08T17:59:24.404Z,7.24
2023-01-08T18:04:26.271Z,7.28
2023-01-08T18:09:28.022Z,7.38
2023-01-08T18:14:29.916Z,7.44
2023-01-08T18:19:31.820Z,7.40
2023-01-08T18:24:34.889Z,7.40
2023-01-08T18:29:36.592Z,7.46
2023-01-08T18:34:38.980Z,7.46
2023-01-08T18:39:40.623Z,7.37
2023-01-08T18:44:42.534Z,7.32
2023-01-08T18:49:44.250Z,7.34
2023-01-08T18:54:45.980Z,7.42
2023-01-08T18:59:50.525Z,7.49
2023-01-08T19:04:52.737Z,7.40
2023-01-08T19:09:54.556Z,7.31
2023-01-08T19:14:56.329Z,7.29
2023-01-08T19:19:58.103Z,7.32
2023-01-08T19:25:00.151Z,7.45
2023-01-08T19:30:03.665Z,7.48
2023-01-08T19:35:06.769Z,7.36
2023-01-08T19:40:09.759Z,7.35
2023-01-08T19:45:11.490Z,7.41
2023-01-08T19:50:13.190Z,7.43
2023-01-08T19:55:17.693Z,7.43
2023-01-08T20:00:22.539Z,7.44
2023-01-08T20:05:24.213Z,7.50
2023-01-08T20:10:26.164Z,7.56
2023-01-08T20:15:29.022Z,7.63
2023-01-08T20:20:31.118Z,7.66
2023-01-08T20:25:34.399Z,7.65
2023-01-08T20:30:36.265Z,7.64
2023-01-08T20:35:38.646Z,7.66
2023-01-08T20:40:41.465Z,7.73
2023-01-08T20:45:43.769Z,7.72
2023-01-08T20:50:47.035Z,7.67
2023-01-08T20:55:49.256Z,7.64
2023-01-08T21:00:51.012Z,7.66
2023-01-08T21:05:52.995Z,7.69
2023-01-08T21:11:02.438Z,7.68
2023-01-08T21:16:07.856Z,7.63
2023-01-08T21:21:12.159Z,7.59
2023-01-08T21:26:15.935Z,7.63
2023-01-08T21:31:22.481Z,7.68
2023-01-08T21:36:26.817Z,7.67
2023-01-08T21:41:48.931Z,7.67
2023-01-08T21:46:51.107Z,7.69
2023-01-08T21:52:11.874Z,7.70
2023-01-08T21:57:13.577Z,7.74
2023-01-08T22:02:17.385Z,7.74
2023-01-08T22:07:19.131Z,7.67
2023-01-08T22:12:23.514Z,7.61
2023-01-08T22:17:28.943Z,7.57
2023-01-08T22:22:30.710Z,7.58
2023-01-08T22:27:32.507Z,7.62
2023-01-08T22:32:36.831Z,7.62
2023-01-08T22:37:40.541Z,7.57
2023-01-08T22:42:42.240Z,7.48
2023-01-08T22:47:43.922Z,7.39
2023-01-08T22:52:45.665Z,7.32
2023-01-08T22:57:47.827Z,7.08
2023-01-08T23:02:49.706Z,6.78
2023-01-08T23:07:51.652Z,6.46
2023-01-08T23:12:53.822Z,6.22
2023-01-08T23:17:55.647Z,6.05
2023-01-08T23:22:57.473Z,5.88
2023-01-08T23:27:59.196Z,5.67
2023-01-08T23:33:01.083Z,5.47
2023-01-08T23:38:02.739Z,5.34
2023-01-08T23:43:04.398Z,5.27
2023-01-08T23:48:06.482Z,5.17
2023-01-08T23:53:08.427Z,5.00
2023-01-08T23:58:10.612Z,4.78
